sensor_id;sensor_type;location;lat;lon;timestamp;P1;durP1;ratioP1;P2;durP2;ratioP2
2658;SDS011;1339;53.304;10.406;2023-02-01T00:01:59;19.10;;;4.28;;
2658;SDS011;1339;53.304;10.406;2023-02-01T00:04:26;18.63;;;5.68;;
2658;SDS011;1339;53.304;10.406;2023-02-01T00:06:54;22.65;;;5.22;;
2658;SDS011;1339;53.304;10.406;2023-02-01T00:09:21;18.00;;;3.80;;
2658;SDS011;1339;53.304;10.406;2023-02-01T00:11:48;18.42;;;5.20;;
2658;SDS011;1339;53.304;10.406;2023-02-01T00:14:15;17.67;;;5.43;;
2658;SDS011;1339;53.304;10.406;2023-02-01T00:16:42;10.57;;;3.55;;
2658;SDS011;1339;53.304;10.406;2023-02-01T00:19:10;22.38;;;4.47;;
2658;SDS011;1339;53.304;10.406;2023-02-01T00:21:37;13.70;;;4.57;;
2658;SDS011;1339;53.304;10.406;2023-02-01T00:24:06;13.98;;;3.97;;
2658;SDS011;1339;53.304;10.406;2023-02-01T00:26:33;20.40;;;5.78;;
2658;SDS011;1339;53.304;10.406;2023-02-01T00:29:01;17.67;;;5.53;;
2658;SDS011;1339;53.304;10.406;2023-02-01T00:31:28;20.42;;;5.60;;
2658;SDS011;1339;53.304;10.406;2023-02-01T00:33:55;13.48;;;3.83;;
2658;SDS011;1339;53.304;10.406;2023-02-01T00:36:22;21.60;;;5.00;;
2658;SDS011;1339;53.304;10.406;2023-02-01T00:38:49;18.98;;;4.32;;
2658;SDS011;1339;53.304;10.406;2023-02-01T00:41:18;12.95;;;4.20;;
2658;SDS011;1339;53.304;10.406;2023-02-01T00:43:45;15.85;;;4.32;;
2658;SDS011;1339;53.304;10.406;2023-02-01T00:46:13;22.25;;;6.07;;
2658;SDS011;1339;53.304;10.406;2023-02-01T00:48:40;13.50;;;4.30;;
2658;SDS011;1339;53.304;10.406;2023-02-01T00:51:10;18.02;;;4.75;;
2658;SDS011;1339;53.304;10.406;2023-02-01T00:53:37;16.83;;;4.30;;
2658;SDS011;1339;53.304;10.406;2023-02-01T00:56:04;20.55;;;4.78;;
2658;SDS011;1339;53.304;10.406;2023-02-01T00:58:33;12.15;;;4.43;;
2658;SDS011;1339;53.304;10.406;2023-02-01T01:01:00;13.20;;;3.92;;
2658;SDS011;1339;53.304;10.406;2023-02-01T01:03:28;18.13;;;3.80;;
2658;SDS011;1339;53.304;10.406;2023-02-01T01:05:58;18.92;;;4.13;;
2658;SDS011;1339;53.304;10.406;2023-02-01T01:08:25;11.85;;;4.20;;
2658;SDS011;1339;53.304;10.406;2023-02-01T01:10:52;23.77;;;4.47;;
2658;SDS011;1339;53.304;10.406;2023-02-01T01:13:19;17.73;;;3.95;;
2658;SDS011;1339;53.304;10.406;2023-02-01T01:15:48;17.42;;;4.97;;
2658;SDS011;1339;53.304;10.406;2023-02-01T01:18:15;21.13;;;5.07;;
2658;SDS011;1339;53.304;10.406;2023-02-01T01:20:42;14.32;;;4.50;;
2658;SDS011;1339;53.304;10.406;2023-02-01T01:23:09;14.95;;;3.60;;
2658;SDS011;1339;53.304;10.406;2023-02-01T01:25:36;16.85;;;4.50;;
2658;SDS011;1339;53.304;10.406;2023-02-01T01:28:04;13.10;;;4.22;;
2658;SDS011;1339;53.304;10.406;2023-02-01T01:30:31;15.50;;;5.72;;
2658;SDS011;1339;53.304;10.406;2023-02-01T01:32:59;20.92;;;7.55;;
2658;SDS011;1339;53.304;10.406;2023-02-01T01:35:28;18.02;;;5.70;;
2658;SDS011;1339;53.304;10.406;2023-02-01T01:37:55;19.75;;;4.88;;
2658;SDS011;1339;53.304;10.406;2023-02-01T01:40:22;15.45;;;4.68;;
2658;SDS011;1339;53.304;10.406;2023-02-01T01:42:49;19.40;;;5.53;;
2658;SDS011;1339;53.304;10.406;2023-02-01T01:45:20;23.23;;;5.68;;
2658;SDS011;1339;53.304;10.406;2023-02-01T01:47:48;13.35;;;3.50;;
2658;SDS011;1339;53.304;10.406;2023-02-01T01:50:18;15.85;;;4.38;;
2658;SDS011;1339;53.304;10.406;2023-02-01T01:52:46;21.77;;;6.00;;
2658;SDS011;1339;53.304;10.406;2023-02-01T01:55:14;13.18;;;3.78;;
2658;SDS011;1339;53.304;10.406;2023-02-01T01:57:44;19.58;;;5.57;;
2658;SDS011;1339;53.304;10.406;2023-02-01T02:00:14;15.50;;;3.55;;
2658;SDS011;1339;53.304;10.406;2023-02-01T02:02:43;15.10;;;5.40;;
2658;SDS011;1339;53.304;10.406;2023-02-01T02:05:10;32.20;;;8.80;;
2658;SDS011;1339;53.304;10.406;2023-02-01T02:07:40;15.90;;;5.00;;
2658;SDS011;1339;53.304;10.406;2023-02-01T02:10:09;19.58;;;4.65;;
2658;SDS011;1339;53.304;10.406;2023-02-01T02:12:37;24.95;;;6.88;;
2658;SDS011;1339;53.304;10.406;2023-02-01T02:15:04;14.68;;;5.45;;
2658;SDS011;1339;53.304;10.406;2023-02-01T02:17:33;15.02;;;5.00;;
2658;SDS011;1339;53.304;10.406;2023-02-01T02:26:08;17.52;;;4.82;;
2658;SDS011;1339;53.304;10.406;2023-02-01T02:28:47;25.73;;;5.53;;
2658;SDS011;1339;53.304;10.406;2023-02-01T02:34:03;18.38;;;4.75;;
2658;SDS011;1339;53.304;10.406;2023-02-01T02:36:36;18.73;;;5.38;;
2658;SDS011;1339;53.304;10.406;2023-02-01T02:39:06;30.95;;;6.60;;
2658;SDS011;1339;53.304;10.406;2023-02-01T02:41:38;12.10;;;5.45;;
2658;SDS011;1339;53.304;10.406;2023-02-01T02:44:27;14.57;;;4.65;;
2658;SDS011;1339;53.304;10.406;2023-02-01T02:47:17;21.85;;;5.70;;
2658;SDS011;1339;53.304;10.406;2023-02-01T02:49:54;24.35;;;6.82;;
2658;SDS011;1339;53.304;10.406;2023-02-01T02:52:41;14.07;;;4.25;;
2658;SDS011;1339;53.304;10.406;2023-02-01T02:55:27;16.55;;;5.43;;
2658;SDS011;1339;53.304;10.406;2023-02-01T02:57:55;25.98;;;7.45;;
2658;SDS011;1339;53.304;10.406;2023-02-01T03:00:40;18.60;;;4.80;;
2658;SDS011;1339;53.304;10.406;2023-02-01T03:03:25;18.83;;;5.90;;
2658;SDS011;1339;53.304;10.406;2023-02-01T03:06:13;19.33;;;4.55;;
2658;SDS011;1339;53.304;10.406;2023-02-01T03:08:42;19.42;;;5.53;;
2658;SDS011;1339;53.304;10.406;2023-02-01T03:11:10;16.55;;;4.32;;
2658;SDS011;1339;53.304;10.406;2023-02-01T03:13:40;13.88;;;3.83;;
2658;SDS011;1339;53.304;10.406;2023-02-01T03:16:09;22.20;;;4.57;;
2658;SDS011;1339;53.304;10.406;2023-02-01T03:18:41;12.18;;;4.35;;
2658;SDS011;1339;53.304;10.406;2023-02-01T03:21:09;13.35;;;4.18;;
2658;SDS011;1339;53.304;10.406;2023-02-01T03:23:39;13.00;;;5.13;;
2658;SDS011;1339;53.304;10.406;2023-02-01T03:26:09;20.27;;;5.32;;
2658;SDS011;1339;53.304;10.406;2023-02-01T03:28:37;9.75;;;3.25;;
2658;SDS011;1339;53.304;10.406;2023-02-01T03:31:07;17.33;;;4.90;;
2658;SDS011;1339;53.304;10.406;2023-02-01T03:33:34;22.55;;;5.85;;
2658;SDS011;1339;53.304;10.406;2023-02-01T03:36:04;21.90;;;4.35;;
2658;SDS011;1339;53.304;10.406;2023-02-01T03:38:33;22.42;;;4.28;;
2658;SDS011;1339;53.304;10.406;2023-02-01T03:41:06;13.10;;;4.63;;
2658;SDS011;1339;53.304;10.406;2023-02-01T03:43:36;14.93;;;5.15;;
2658;SDS011;1339;53.304;10.406;2023-02-01T03:46:07;11.32;;;3.95;;
2658;SDS011;1339;53.304;10.406;2023-02-01T03:48:35;14.13;;;4.70;;
2658;SDS011;1339;53.304;10.406;2023-02-01T03:51:03;11.13;;;3.80;;
2658;SDS011;1339;53.304;10.406;2023-02-01T03:53:31;8.60;;;4.10;;
2658;SDS011;1339;53.304;10.406;2023-02-01T03:56:01;14.40;;;5.50;;
2658;SDS011;1339;53.304;10.406;2023-02-01T03:58:30;12.90;;;3.75;;
2658;SDS011;1339;53.304;10.406;2023-02-01T04:00:57;16.58;;;3.50;;
2658;SDS011;1339;53.304;10.406;2023-02-01T04:03:25;11.23;;;3.30;;
2658;SDS011;1339;53.304;10.406;2023-02-01T04:05:52;7.78;;;2.63;;
2658;SDS011;1339;53.304;10.406;2023-02-01T04:08:20;7.75;;;2.50;;
2658;SDS011;1339;53.304;10.406;2023-02-01T04:10:47;3.65;;;2.10;;
2658;SDS011;1339;53.304;10.406;2023-02-01T04:13:14;4.38;;;1.30;;
2658;SDS011;1339;53.304;10.406;2023-02-01T04:15:42;1.73;;;1.20;;
2658;SDS011;1339;53.304;10.406;2023-02-01T04:18:10;5.03;;;1.80;;
2658;SDS011;1339;53.304;10.406;2023-02-01T04:20:37;7.35;;;2.22;;
2658;SDS011;1339;53.304;10.406;2023-02-01T04:23:04;7.50;;;1.67;;
2658;SDS011;1339;53.304;10.406;2023-02-01T04:25:31;9.43;;;1.70;;
2658;SDS011;1339;53.304;10.406;2023-02-01T04:27:58;3.58;;;1.55;;
2658;SDS011;1339;53.304;10.406;2023-02-01T04:30:25;5.90;;;1.70;;
2658;SDS011;1339;53.304;10.406;2023-02-01T04:32:53;5.78;;;1.70;;
2658;SDS011;1339;53.304;10.406;2023-02-01T04:35:20;3.30;;;1.95;;
2658;SDS011;1339;53.304;10.406;2023-02-01T04:37:47;3.47;;;1.35;;
2658;SDS011;1339;53.304;10.406;2023-02-01T04:40:14;7.93;;;1.95;;
2658;SDS011;1339;53.304;10.406;2023-02-01T04:42:41;4.78;;;1.67;;
2658;SDS011;1339;53.304;10.406;2023-02-01T04:45:08;4.18;;;2.20;;
2658;SDS011;1339;53.304;10.406;2023-02-01T04:47:35;6.78;;;2.83;;
2658;SDS011;1339;53.304;10.406;2023-02-01T04:50:04;4.03;;;2.75;;
2658;SDS011;1339;53.304;10.406;2023-02-01T04:52:32;6.38;;;3.00;;
2658;SDS011;1339;53.304;10.406;2023-02-01T04:54:59;7.88;;;2.83;;
2658;SDS011;1339;53.304;10.406;2023-02-01T04:57:27;4.25;;;1.60;;
2658;SDS011;1339;53.304;10.406;2023-02-01T04:59:54;4.75;;;1.45;;
2658;SDS011;1339;53.304;10.406;2023-02-01T05:02:21;3.95;;;1.83;;
2658;SDS011;1339;53.304;10.406;2023-02-01T05:04:48;3.15;;;1.55;;
2658;SDS011;1339;53.304;10.406;2023-02-01T05:07:17;4.03;;;1.50;;
2658;SDS011;1339;53.304;10.406;2023-02-01T05:09:43;3.40;;;1.45;;
2658;SDS011;1339;53.304;10.406;2023-02-01T05:12:10;1.40;;;1.05;;
2658;SDS011;1339;53.304;10.406;2023-02-01T05:14:55;2.10;;;1.45;;
2658;SDS011;1339;53.304;10.406;2023-02-01T05:17:22;3.58;;;1.77;;
2658;SDS011;1339;53.304;10.406;2023-02-01T05:19:49;2.95;;;1.40;;
2658;SDS011;1339;53.304;10.406;2023-02-01T05:22:17;2.58;;;1.65;;
2658;SDS011;1339;53.304;10.406;2023-02-01T05:24:44;3.42;;;2.25;;
2658;SDS011;1339;53.304;10.406;2023-02-01T05:27:11;2.72;;;1.13;;
2658;SDS011;1339;53.304;10.406;2023-02-01T05:29:38;3.78;;;1.10;;
2658;SDS011;1339;53.304;10.406;2023-02-01T05:32:05;3.25;;;1.10;;
2658;SDS011;1339;53.304;10.406;2023-02-01T05:34:32;1.92;;;1.40;;
2658;SDS011;1339;53.304;10.406;2023-02-01T05:36:59;3.00;;;1.20;;
2658;SDS011;1339;53.304;10.406;2023-02-01T05:39:29;1.13;;;1.02;;
2658;SDS011;1339;53.304;10.406;2023-02-01T05:41:56;5.78;;;2.05;;
2658;SDS011;1339;53.304;10.406;2023-02-01T05:44:23;1.38;;;1.05;;
2658;SDS011;1339;53.304;10.406;2023-02-01T05:46:50;3.75;;;0.80;;
2658;SDS011;1339;53.304;10.406;2023-02-01T05:49:18;1.35;;;0.90;;
2658;SDS011;1339;53.304;10.406;2023-02-01T05:51:45;0.80;;;0.60;;
2658;SDS011;1339;53.304;10.406;2023-02-01T05:54:12;2.50;;;0.98;;
2658;SDS011;1339;53.304;10.406;2023-02-01T05:56:40;3.25;;;1.00;;
2658;SDS011;1339;53.304;10.406;2023-02-01T05:59:07;1.42;;;1.00;;
2658;SDS011;1339;53.304;10.406;2023-02-01T06:01:34;1.70;;;1.00;;
2658;SDS011;1339;53.304;10.406;2023-02-01T06:04:01;4.82;;;2.13;;
2658;SDS011;1339;53.304;10.406;2023-02-01T06:06:28;1.95;;;0.80;;
2658;SDS011;1339;53.304;10.406;2023-02-01T06:08:55;1.83;;;0.70;;
2658;SDS011;1339;53.304;10.406;2023-02-01T06:11:21;2.60;;;1.10;;
2658;SDS011;1339;53.304;10.406;2023-02-01T06:13:50;0.90;;;0.70;;
2658;SDS011;1339;53.304;10.406;2023-02-01T06:16:17;2.78;;;1.20;;
2658;SDS011;1339;53.304;10.406;2023-02-01T06:18:44;1.17;;;1.08;;
2658;SDS011;1339;53.304;10.406;2023-02-01T06:21:11;1.00;;;0.82;;
2658;SDS011;1339;53.304;10.406;2023-02-01T06:23:40;3.50;;;1.40;;
2658;SDS011;1339;53.304;10.406;2023-02-01T06:26:09;2.15;;;0.88;;
2658;SDS011;1339;53.304;10.406;2023-02-01T06:28:36;1.20;;;0.90;;
2658;SDS011;1339;53.304;10.406;2023-02-01T06:31:05;2.13;;;1.02;;
2658;SDS011;1339;53.304;10.406;2023-02-01T06:33:32;1.67;;;0.90;;
2658;SDS011;1339;53.304;10.406;2023-02-01T06:36:00;2.35;;;0.93;;
2658;SDS011;1339;53.304;10.406;2023-02-01T06:38:28;1.15;;;1.02;;
2658;SDS011;1339;53.304;10.406;2023-02-01T06:40:55;3.28;;;1.30;;
2658;SDS011;1339;53.304;10.406;2023-02-01T06:43:23;3.00;;;1.58;;
2658;SDS011;1339;53.304;10.406;2023-02-01T06:45:50;3.03;;;1.10;;
2658;SDS011;1339;53.304;10.406;2023-02-01T06:48:18;3.00;;;0.90;;
2658;SDS011;1339;53.304;10.406;2023-02-01T06:50:45;5.68;;;1.27;;
2658;SDS011;1339;53.304;10.406;2023-02-01T06:53:12;2.35;;;1.30;;
2658;SDS011;1339;53.304;10.406;2023-02-01T06:55:39;2.50;;;1.23;;
2658;SDS011;1339;53.304;10.406;2023-02-01T06:58:06;5.95;;;1.20;;
2658;SDS011;1339;53.304;10.406;2023-02-01T07:00:33;10.05;;;1.98;;
2658;SDS011;1339;53.304;10.406;2023-02-01T07:03:01;4.43;;;1.55;;
2658;SDS011;1339;53.304;10.406;2023-02-01T07:05:29;5.68;;;2.00;;
2658;SDS011;1339;53.304;10.406;2023-02-01T07:07:56;5.18;;;1.73;;
2658;SDS011;1339;53.304;10.406;2023-02-01T07:10:23;2.03;;;1.33;;
2658;SDS011;1339;53.304;10.406;2023-02-01T07:12:50;5.20;;;2.00;;
2658;SDS011;1339;53.304;10.406;2023-02-01T07:15:17;3.35;;;1.83;;
2658;SDS011;1339;53.304;10.406;2023-02-01T07:17:44;5.75;;;1.67;;
2658;SDS011;1339;53.304;10.406;2023-02-01T07:20:11;2.97;;;2.03;;
2658;SDS011;1339;53.304;10.406;2023-02-01T07:22:40;4.00;;;1.98;;
2658;SDS011;1339;53.304;10.406;2023-02-01T07:25:07;4.30;;;1.75;;
2658;SDS011;1339;53.304;10.406;2023-02-01T07:27:34;2.53;;;1.58;;
2658;SDS011;1339;53.304;10.406;2023-02-01T07:30:01;2.55;;;2.13;;
2658;SDS011;1339;53.304;10.406;2023-02-01T07:32:28;1.92;;;1.40;;
2658;SDS011;1339;53.304;10.406;2023-02-01T07:34:55;5.20;;;1.95;;
2658;SDS011;1339;53.304;10.406;2023-02-01T07:37:22;3.67;;;2.17;;
2658;SDS011;1339;53.304;10.406;2023-02-01T07:39:51;4.75;;;2.13;;
2658;SDS011;1339;53.304;10.406;2023-02-01T07:42:18;7.63;;;2.17;;
2658;SDS011;1339;53.304;10.406;2023-02-01T07:44:45;6.90;;;2.90;;
2658;SDS011;1339;53.304;10.406;2023-02-01T07:47:12;4.53;;;2.20;;
2658;SDS011;1339;53.304;10.406;2023-02-01T07:49:39;6.95;;;2.83;;
2658;SDS011;1339;53.304;10.406;2023-02-01T07:52:06;4.97;;;2.42;;
2658;SDS011;1339;53.304;10.406;2023-02-01T07:54:33;9.85;;;3.70;;
2658;SDS011;1339;53.304;10.406;2023-02-01T07:57:01;13.20;;;3.47;;
2658;SDS011;1339;53.304;10.406;2023-02-01T07:59:28;11.38;;;3.70;;
2658;SDS011;1339;53.304;10.406;2023-02-01T08:01:55;17.65;;;4.28;;
2658;SDS011;1339;53.304;10.406;2023-02-01T08:04:21;14.00;;;3.40;;
2658;SDS011;1339;53.304;10.406;2023-02-01T08:06:48;14.60;;;3.95;;
2658;SDS011;1339;53.304;10.406;2023-02-01T08:09:15;15.57;;;4.07;;
2658;SDS011;1339;53.304;10.406;2023-02-01T08:11:42;13.13;;;5.85;;
2658;SDS011;1339;53.304;10.406;2023-02-01T08:14:10;11.82;;;3.75;;
2658;SDS011;1339;53.304;10.406;2023-02-01T08:16:37;17.95;;;5.22;;
2658;SDS011;1339;53.304;10.406;2023-02-01T08:19:04;10.93;;;4.65;;
2658;SDS011;1339;53.304;10.406;2023-02-01T08:21:31;9.98;;;3.88;;
2658;SDS011;1339;53.304;10.406;2023-02-01T08:24:03;9.35;;;3.70;;
2658;SDS011;1339;53.304;10.406;2023-02-01T08:26:30;10.98;;;4.97;;
2658;SDS011;1339;53.304;10.406;2023-02-01T08:28:57;14.65;;;3.78;;
2658;SDS011;1339;53.304;10.406;2023-02-01T08:31:26;14.32;;;6.10;;
2658;SDS011;1339;53.304;10.406;2023-02-01T08:33:54;18.90;;;4.43;;
2658;SDS011;1339;53.304;10.406;2023-02-01T08:36:22;14.13;;;4.03;;
2658;SDS011;1339;53.304;10.406;2023-02-01T08:38:49;18.33;;;4.03;;
2658;SDS011;1339;53.304;10.406;2023-02-01T08:41:17;18.17;;;4.75;;
2658;SDS011;1339;53.304;10.406;2023-02-01T08:43:44;14.07;;;5.20;;
2658;SDS011;1339;53.304;10.406;2023-02-01T08:46:12;17.42;;;5.50;;
2658;SDS011;1339;53.304;10.406;2023-02-01T08:48:41;14.02;;;4.50;;
2658;SDS011;1339;53.304;10.406;2023-02-01T08:51:08;10.10;;;4.60;;
2658;SDS011;1339;53.304;10.406;2023-02-01T08:53:35;13.20;;;4.35;;
2658;SDS011;1339;53.304;10.406;2023-02-01T08:56:02;21.85;;;7.20;;
2658;SDS011;1339;53.304;10.406;2023-02-01T08:58:29;14.95;;;5.78;;
2658;SDS011;1339;53.304;10.406;2023-02-01T09:00:56;15.50;;;4.18;;
2658;SDS011;1339;53.304;10.406;2023-02-01T09:03:23;17.08;;;5.93;;
2658;SDS011;1339;53.304;10.406;2023-02-01T09:05:52;11.57;;;4.55;;
2658;SDS011;1339;53.304;10.406;2023-02-01T09:08:18;20.58;;;5.75;;
2658;SDS011;1339;53.304;10.406;2023-02-01T09:10:45;20.70;;;4.68;;
2658;SDS011;1339;53.304;10.406;2023-02-01T09:13:12;24.58;;;4.93;;
2658;SDS011;1339;53.304;10.406;2023-02-01T09:15:39;11.75;;;3.28;;
2658;SDS011;1339;53.304;10.406;2023-02-01T09:18:06;23.85;;;5.35;;
2658;SDS011;1339;53.304;10.406;2023-02-01T09:20:33;11.82;;;3.65;;
2658;SDS011;1339;53.304;10.406;2023-02-01T09:23:01;9.80;;;3.35;;
2658;SDS011;1339;53.304;10.406;2023-02-01T09:25:28;10.88;;;4.60;;
2658;SDS011;1339;53.304;10.406;2023-02-01T09:27:55;14.93;;;3.20;;
2658;SDS011;1339;53.304;10.406;2023-02-01T09:30:22;14.93;;;3.97;;
2658;SDS011;1339;53.304;10.406;2023-02-01T09:32:49;18.75;;;5.30;;
2658;SDS011;1339;53.304;10.406;2023-02-01T09:35:16;15.35;;;4.30;;
2658;SDS011;1339;53.304;10.406;2023-02-01T09:37:46;18.23;;;4.60;;
2658;SDS011;1339;53.304;10.406;2023-02-01T09:40:15;12.05;;;4.15;;
2658;SDS011;1339;53.304;10.406;2023-02-01T09:42:50;16.30;;;5.45;;
2658;SDS011;1339;53.304;10.406;2023-02-01T09:45:22;25.33;;;5.53;;
2658;SDS011;1339;53.304;10.406;2023-02-01T09:47:52;18.10;;;3.97;;
2658;SDS011;1339;53.304;10.406;2023-02-01T09:50:21;16.02;;;5.05;;
2658;SDS011;1339;53.304;10.406;2023-02-01T09:52:50;12.77;;;3.97;;
2658;SDS011;1339;53.304;10.406;2023-02-01T09:55:31;14.55;;;4.22;;
2658;SDS011;1339;53.304;10.406;2023-02-01T09:58:00;15.88;;;4.75;;
2658;SDS011;1339;53.304;10.406;2023-02-01T10:00:29;21.30;;;4.85;;
2658;SDS011;1339;53.304;10.406;2023-02-01T10:02:56;13.98;;;5.03;;
2658;SDS011;1339;53.304;10.406;2023-02-01T10:05:26;17.48;;;4.05;;
2658;SDS011;1339;53.304;10.406;2023-02-01T10:07:58;22.15;;;6.57;;
2658;SDS011;1339;53.304;10.406;2023-02-01T10:10:29;11.45;;;3.63;;
2658;SDS011;1339;53.304;10.406;2023-02-01T10:18:31;11.32;;;3.03;;
2658;SDS011;1339;53.304;10.406;2023-02-01T10:21:02;14.77;;;4.28;;
2658;SDS011;1339;53.304;10.406;2023-02-01T10:23:38;15.90;;;4.70;;
2658;SDS011;1339;53.304;10.406;2023-02-01T10:26:12;11.68;;;4.85;;
2658;SDS011;1339;53.304;10.406;2023-02-01T10:28:44;15.05;;;3.63;;
2658;SDS011;1339;53.304;10.406;2023-02-01T10:31:12;16.20;;;3.58;;
2658;SDS011;1339;53.304;10.406;2023-02-01T10:33:41;15.15;;;4.47;;
2658;SDS011;1339;53.304;10.406;2023-02-01T10:36:10;17.42;;;4.75;;
2658;SDS011;1339;53.304;10.406;2023-02-01T10:38:41;14.25;;;3.72;;
2658;SDS011;1339;53.304;10.406;2023-02-01T10:41:10;13.10;;;3.42;;
2658;SDS011;1339;53.304;10.406;2023-02-01T10:43:39;17.33;;;5.45;;
2658;SDS011;1339;53.304;10.406;2023-02-01T10:46:07;14.40;;;4.50;;
2658;SDS011;1339;53.304;10.406;2023-02-01T10:48:34;15.55;;;4.43;;
2658;SDS011;1339;53.304;10.406;2023-02-01T10:51:02;10.32;;;4.20;;
2658;SDS011;1339;53.304;10.406;2023-02-01T10:53:31;11.10;;;3.85;;
2658;SDS011;1339;53.304;10.406;2023-02-01T10:56:05;13.55;;;4.38;;
2658;SDS011;1339;53.304;10.406;2023-02-01T10:58:32;15.60;;;3.72;;
2658;SDS011;1339;53.304;10.406;2023-02-01T11:01:03;16.55;;;3.45;;
2658;SDS011;1339;53.304;10.406;2023-02-01T11:03:34;9.02;;;4.75;;
2658;SDS011;1339;53.304;10.406;2023-02-01T11:06:08;12.23;;;4.43;;
2658;SDS011;1339;53.304;10.406;2023-02-01T11:08:41;10.65;;;3.55;;
2658;SDS011;1339;53.304;10.406;2023-02-01T11:11:09;18.50;;;5.45;;
2658;SDS011;1339;53.304;10.406;2023-02-01T11:13:37;21.25;;;5.43;;
2658;SDS011;1339;53.304;10.406;2023-02-01T11:16:06;9.75;;;3.58;;
2658;SDS011;1339;53.304;10.406;2023-02-01T11:18:35;18.42;;;4.65;;
2658;SDS011;1339;53.304;10.406;2023-02-01T11:21:03;14.73;;;4.95;;
2658;SDS011;1339;53.304;10.406;2023-02-01T11:23:31;17.73;;;4.00;;
2658;SDS011;1339;53.304;10.406;2023-02-01T11:26:01;13.82;;;3.00;;
2658;SDS011;1339;53.304;10.406;2023-02-01T11:28:34;9.75;;;3.60;;
2658;SDS011;1339;53.304;10.406;2023-02-01T11:31:02;11.57;;;3.13;;
2658;SDS011;1339;53.304;10.406;2023-02-01T11:33:31;16.65;;;4.80;;
2658;SDS011;1339;53.304;10.406;2023-02-01T11:36:00;23.73;;;4.85;;
2658;SDS011;1339;53.304;10.406;2023-02-01T11:38:29;20.83;;;4.47;;
2658;SDS011;1339;53.304;10.406;2023-02-01T11:41:01;11.48;;;3.30;;
2658;SDS011;1339;53.304;10.406;2023-02-01T11:43:38;28.30;;;4.85;;
2658;SDS011;1339;53.304;10.406;2023-02-01T11:46:17;13.05;;;3.75;;
2658;SDS011;1339;53.304;10.406;2023-02-01T11:48:51;14.60;;;4.47;;
2658;SDS011;1339;53.304;10.406;2023-02-01T11:51:32;8.00;;;4.22;;
2658;SDS011;1339;53.304;10.406;2023-02-01T11:54:05;12.13;;;4.90;;
2658;SDS011;1339;53.304;10.406;2023-02-01T11:56:36;9.60;;;3.75;;
2658;SDS011;1339;53.304;10.406;2023-02-01T11:59:07;13.57;;;4.57;;
2658;SDS011;1339;53.304;10.406;2023-02-01T12:04:42;18.55;;;4.28;;
2658;SDS011;1339;53.304;10.406;2023-02-01T12:07:14;14.27;;;3.72;;
2658;SDS011;1339;53.304;10.406;2023-02-01T12:09:46;19.15;;;4.95;;
2658;SDS011;1339;53.304;10.406;2023-02-01T12:12:18;11.90;;;3.55;;
2658;SDS011;1339;53.304;10.406;2023-02-01T12:14:50;18.27;;;4.32;;
2658;SDS011;1339;53.304;10.406;2023-02-01T12:17:27;5.30;;;3.05;;
2658;SDS011;1339;53.304;10.406;2023-02-01T12:20:03;10.95;;;5.03;;
2658;SDS011;1339;53.304;10.406;2023-02-01T12:22:37;6.68;;;3.22;;
2658;SDS011;1339;53.304;10.406;2023-02-01T12:25:14;6.68;;;2.72;;
2658;SDS011;1339;53.304;10.406;2023-02-01T12:30:39;5.40;;;2.97;;
2658;SDS011;1339;53.304;10.406;2023-02-01T12:33:11;2.97;;;2.22;;
2658;SDS011;1339;53.304;10.406;2023-02-01T12:35:47;1.83;;;1.05;;
2658;SDS011;1339;53.304;10.406;2023-02-01T12:38:27;2.58;;;1.58;;
2658;SDS011;1339;53.304;10.406;2023-02-01T12:41:00;1.80;;;1.10;;
2658;SDS011;1339;53.304;10.406;2023-02-01T12:43:33;3.30;;;1.20;;
2658;SDS011;1339;53.304;10.406;2023-02-01T12:46:03;2.67;;;1.23;;
2658;SDS011;1339;53.304;10.406;2023-02-01T12:48:33;1.45;;;1.20;;
2658;SDS011;1339;53.304;10.406;2023-02-01T12:51:04;4.13;;;1.20;;
2658;SDS011;1339;53.304;10.406;2023-02-01T12:53:37;1.75;;;1.38;;
2658;SDS011;1339;53.304;10.406;2023-02-01T12:56:09;1.52;;;1.15;;
2658;SDS011;1339;53.304;10.406;2023-02-01T12:58:38;1.75;;;1.17;;
2658;SDS011;1339;53.304;10.406;2023-02-01T13:01:09;4.18;;;3.28;;
2658;SDS011;1339;53.304;10.406;2023-02-01T13:03:39;3.80;;;0.95;;
2658;SDS011;1339;53.304;10.406;2023-02-01T13:06:10;5.47;;;1.00;;
2658;SDS011;1339;53.304;10.406;2023-02-01T13:08:41;1.10;;;0.80;;
2658;SDS011;1339;53.304;10.406;2023-02-01T13:11:10;0.80;;;0.70;;
2658;SDS011;1339;53.304;10.406;2023-02-01T13:13:42;2.03;;;0.90;;
2658;SDS011;1339;53.304;10.406;2023-02-01T13:16:14;1.00;;;0.90;;
2658;SDS011;1339;53.304;10.406;2023-02-01T13:18:43;0.88;;;0.88;;
2658;SDS011;1339;53.304;10.406;2023-02-01T13:21:14;0.90;;;0.73;;
2658;SDS011;1339;53.304;10.406;2023-02-01T13:23:43;1.65;;;0.80;;
2658;SDS011;1339;53.304;10.406;2023-02-01T13:26:11;1.35;;;1.00;;
2658;SDS011;1339;53.304;10.406;2023-02-01T13:28:40;1.25;;;0.80;;
2658;SDS011;1339;53.304;10.406;2023-02-01T13:31:26;1.02;;;0.70;;
2658;SDS011;1339;53.304;10.406;2023-02-01T13:34:16;2.45;;;1.08;;
2658;SDS011;1339;53.304;10.406;2023-02-01T13:36:56;0.80;;;0.70;;
2658;SDS011;1339;53.304;10.406;2023-02-01T13:39:34;0.90;;;0.70;;
2658;SDS011;1339;53.304;10.406;2023-02-01T13:42:05;1.63;;;1.00;;
2658;SDS011;1339;53.304;10.406;2023-02-01T13:44:39;1.20;;;0.90;;
2658;SDS011;1339;53.304;10.406;2023-02-01T13:47:10;1.13;;;0.70;;
2658;SDS011;1339;53.304;10.406;2023-02-01T13:49:39;1.10;;;0.90;;
2658;SDS011;1339;53.304;10.406;2023-02-01T13:52:17;1.98;;;1.20;;
2658;SDS011;1339;53.304;10.406;2023-02-01T13:54:47;1.50;;;0.90;;
2658;SDS011;1339;53.304;10.406;2023-02-01T13:57:28;1.30;;;0.80;;
2658;SDS011;1339;53.304;10.406;2023-02-01T14:00:06;1.10;;;1.00;;
2658;SDS011;1339;53.304;10.406;2023-02-01T14:02:45;1.20;;;0.70;;
2658;SDS011;1339;53.304;10.406;2023-02-01T14:05:53;0.93;;;0.75;;
2658;SDS011;1339;53.304;10.406;2023-02-01T14:08:09;2.20;;;0.90;;
2658;SDS011;1339;53.304;10.406;2023-02-01T14:10:46;1.75;;;0.80;;
2658;SDS011;1339;53.304;10.406;2023-02-01T14:13:21;2.03;;;0.95;;
2658;SDS011;1339;53.304;10.406;2023-02-01T14:16:00;1.15;;;0.93;;
2658;SDS011;1339;53.304;10.406;2023-02-01T14:18:56;1.15;;;0.75;;
2658;SDS011;1339;53.304;10.406;2023-02-01T14:21:25;1.25;;;1.15;;
2658;SDS011;1339;53.304;10.406;2023-02-01T14:23:58;1.30;;;1.10;;
2658;SDS011;1339;53.304;10.406;2023-02-01T14:26:25;1.77;;;1.00;;
2658;SDS011;1339;53.304;10.406;2023-02-01T14:28:56;2.22;;;0.88;;
2658;SDS011;1339;53.304;10.406;2023-02-01T14:31:35;1.40;;;0.90;;
2658;SDS011;1339;53.304;10.406;2023-02-01T14:34:09;1.30;;;1.15;;
2658;SDS011;1339;53.304;10.406;2023-02-01T14:36:44;4.75;;;1.13;;
2658;SDS011;1339;53.304;10.406;2023-02-01T14:39:20;3.53;;;1.30;;
2658;SDS011;1339;53.304;10.406;2023-02-01T14:41:48;2.05;;;1.25;;
2658;SDS011;1339;53.304;10.406;2023-02-01T14:44:26;2.90;;;1.05;;
2658;SDS011;1339;53.304;10.406;2023-02-01T14:49:42;6.65;;;1.17;;
2658;SDS011;1339;53.304;10.406;2023-02-01T14:52:15;15.70;;;4.43;;
2658;SDS011;1339;53.304;10.406;2023-02-01T14:54:45;3.53;;;1.60;;
2658;SDS011;1339;53.304;10.406;2023-02-01T14:57:14;7.72;;;3.13;;
2658;SDS011;1339;53.304;10.406;2023-02-01T14:59:42;2.47;;;1.30;;
2658;SDS011;1339;53.304;10.406;2023-02-01T15:02:17;5.28;;;1.20;;
2658;SDS011;1339;53.304;10.406;2023-02-01T15:04:44;4.97;;;1.83;;
2658;SDS011;1339;53.304;10.406;2023-02-01T15:07:12;4.07;;;1.55;;
2658;SDS011;1339;53.304;10.406;2023-02-01T15:09:42;2.85;;;1.35;;
2658;SDS011;1339;53.304;10.406;2023-02-01T15:12:16;5.22;;;2.38;;
2658;SDS011;1339;53.304;10.406;2023-02-01T15:14:46;4.32;;;1.50;;
2658;SDS011;1339;53.304;10.406;2023-02-01T15:17:17;1.20;;;1.00;;
2658;SDS011;1339;53.304;10.406;2023-02-01T15:19:52;1.30;;;0.73;;
2658;SDS011;1339;53.304;10.406;2023-02-01T15:22:19;2.17;;;0.98;;
2658;SDS011;1339;53.304;10.406;2023-02-01T15:24:51;3.50;;;0.95;;
2658;SDS011;1339;53.304;10.406;2023-02-01T15:27:20;4.68;;;1.63;;
2658;SDS011;1339;53.304;10.406;2023-02-01T15:29:47;4.95;;;2.58;;
2658;SDS011;1339;53.304;10.406;2023-02-01T15:32:27;5.38;;;1.10;;
2658;SDS011;1339;53.304;10.406;2023-02-01T15:34:55;3.92;;;1.20;;